sensor_id;sensor_type;location;lat;lon;timestamp;temperature;humidity
82243;DHT22;71844;51.528;4.442;2024-02-28T00:02:15;5.20;74.60
82243;DHT22;71844;51.528;4.442;2024-02-28T00:04:42;5.10;74.40
82243;DHT22;71844;51.528;4.442;2024-02-28T00:07:09;5.10;74.60
82243;DHT22;71844;51.528;4.442;2024-02-28T00:09:36;5.10;74.60
82243;DHT22;71844;51.528;4.442;2024-02-28T00:12:03;5.00;74.80
82243;DHT22;71844;51.528;4.442;2024-02-28T00:14:30;5.00;75.00
82243;DHT22;71844;51.528;4.442;2024-02-28T00:16:57;4.90;75.20
82243;DHT22;71844;51.528;4.442;2024-02-28T00:19:24;4.90;75.30
82243;DHT22;71844;51.528;4.442;2024-02-28T00:21:52;4.90;75.50
82243;DHT22;71844;51.528;4.442;2024-02-28T00:24:22;4.80;75.50
82243;DHT22;71844;51.528;4.442;2024-02-28T00:26:49;4.80;75.40
82243;DHT22;71844;51.528;4.442;2024-02-28T00:29:16;4.80;75.60
82243;DHT22;71844;51.528;4.442;2024-02-28T00:31:42;4.80;75.50
82243;DHT22;71844;51.528;4.442;2024-02-28T00:34:10;4.70;75.50
82243;DHT22;71844;51.528;4.442;2024-02-28T00:36:37;4.70;75.80
82243;DHT22;71844;51.528;4.442;2024-02-28T00:39:21;4.60;75.90
82243;DHT22;71844;51.528;4.442;2024-02-28T00:41:48;4.60;76.30
82243;DHT22;71844;51.528;4.442;2024-02-28T00:44:14;4.60;76.20
82243;DHT22;71844;51.528;4.442;2024-02-28T00:46:41;4.50;76.20
82243;DHT22;71844;51.528;4.442;2024-02-28T00:49:08;4.50;76.20
82243;DHT22;71844;51.528;4.442;2024-02-28T00:51:35;4.50;76.20
82243;DHT22;71844;51.528;4.442;2024-02-28T00:54:05;4.40;76.40
82243;DHT22;71844;51.528;4.442;2024-02-28T00:56:32;4.40;76.40
82243;DHT22;71844;51.528;4.442;2024-02-28T00:58:59;4.40;76.50
82243;DHT22;71844;51.528;4.442;2024-02-28T01:01:25;4.40;76.50
82243;DHT22;71844;51.528;4.442;2024-02-28T01:03:52;4.40;76.60
82243;DHT22;71844;51.528;4.442;2024-02-28T01:06:20;4.40;76.70
82243;DHT22;71844;51.528;4.442;2024-02-28T01:08:47;4.30;76.60
82243;DHT22;71844;51.528;4.442;2024-02-28T01:11:13;4.30;76.70
82243;DHT22;71844;51.528;4.442;2024-02-28T01:13:40;4.30;76.70
82243;DHT22;71844;51.528;4.442;2024-02-28T01:16:07;4.30;76.80
82243;DHT22;71844;51.528;4.442;2024-02-28T01:18:34;4.20;76.90
82243;DHT22;71844;51.528;4.442;2024-02-28T01:21:01;4.20;76.80
82243;DHT22;71844;51.528;4.442;2024-02-28T01:23:28;4.20;77.00
82243;DHT22;71844;51.528;4.442;2024-02-28T01:25:55;4.20;76.90
82243;DHT22;71844;51.528;4.442;2024-02-28T01:28:22;4.20;76.90
82243;DHT22;71844;51.528;4.442;2024-02-28T01:30:49;4.10;77.00
82243;DHT22;71844;51.528;4.442;2024-02-28T01:33:15;4.10;77.00
82243;DHT22;71844;51.528;4.442;2024-02-28T01:35:42;4.10;77.10
82243;DHT22;71844;51.528;4.442;2024-02-28T01:38:09;4.10;77.10
82243;DHT22;71844;51.528;4.442;2024-02-28T01:40:36;4.10;77.00
82243;DHT22;71844;51.528;4.442;2024-02-28T01:43:07;4.10;77.10
82243;DHT22;71844;51.528;4.442;2024-02-28T01:45:34;4.00;77.40
82243;DHT22;71844;51.528;4.442;2024-02-28T01:48:01;4.00;77.40
82243;DHT22;71844;51.528;4.442;2024-02-28T01:53:13;3.90;77.60
82243;DHT22;71844;51.528;4.442;2024-02-28T01:55:40;3.90;77.70
82243;DHT22;71844;51.528;4.442;2024-02-28T01:58:08;3.90;77.60
82243;DHT22;71844;51.528;4.442;2024-02-28T02:03:29;3.80;77.80
82243;DHT22;71844;51.528;4.442;2024-02-28T02:05:56;3.80;78.10
82243;DHT22;71844;51.528;4.442;2024-02-28T02:08:23;3.80;78.10
82243;DHT22;71844;51.528;4.442;2024-02-28T02:10:51;3.80;78.20
82243;DHT22;71844;51.528;4.442;2024-02-28T02:13:18;3.70;78.20
82243;DHT22;71844;51.528;4.442;2024-02-28T02:15:48;3.70;78.30
82243;DHT22;71844;51.528;4.442;2024-02-28T02:18:15;3.70;78.30
82243;DHT22;71844;51.528;4.442;2024-02-28T02:20:45;3.70;78.70
82243;DHT22;71844;51.528;4.442;2024-02-28T02:23:14;3.60;78.50
82243;DHT22;71844;51.528;4.442;2024-02-28T02:25:48;3.60;78.50
82243;DHT22;71844;51.528;4.442;2024-02-28T02:28:15;3.60;78.50
82243;DHT22;71844;51.528;4.442;2024-02-28T02:30:43;3.60;78.60
82243;DHT22;71844;51.528;4.442;2024-02-28T02:33:10;3.60;78.80
82243;DHT22;71844;51.528;4.442;2024-02-28T02:35:37;3.50;78.60
82243;DHT22;71844;51.528;4.442;2024-02-28T02:38:04;3.50;78.80
82243;DHT22;71844;51.528;4.442;2024-02-28T02:40:32;3.50;78.80
82243;DHT22;71844;51.528;4.442;2024-02-28T02:42:59;3.50;78.70
82243;DHT22;71844;51.528;4.442;2024-02-28T02:45:26;3.50;78.80
82243;DHT22;71844;51.528;4.442;2024-02-28T02:47:53;3.40;78.80
82243;DHT22;71844;51.528;4.442;2024-02-28T02:50:20;3.40;78.80
82243;DHT22;71844;51.528;4.442;2024-02-28T02:52:47;3.40;78.90
82243;DHT22;71844;51.528;4.442;2024-02-28T02:55:14;3.40;79.00
82243;DHT22;71844;51.528;4.442;2024-02-28T02:57:42;3.40;79.10
82243;DHT22;71844;51.528;4.442;2024-02-28T03:00:09;3.40;79.10
82243;DHT22;71844;51.528;4.442;2024-02-28T03:02:36;3.40;79.20
82243;DHT22;71844;51.528;4.442;2024-02-28T03:05:06;3.40;79.30
82243;DHT22;71844;51.528;4.442;2024-02-28T03:07:34;3.40;79.20
82243;DHT22;71844;51.528;4.442;2024-02-28T03:10:01;3.40;79.20
82243;DHT22;71844;51.528;4.442;2024-02-28T03:12:28;3.30;79.10
82243;DHT22;71844;51.528;4.442;2024-02-28T03:14:56;3.30;79.20
82243;DHT22;71844;51.528;4.442;2024-02-28T03:17:23;3.30;79.10
82243;DHT22;71844;51.528;4.442;2024-02-28T03:19:50;3.30;79.10
82243;DHT22;71844;51.528;4.442;2024-02-28T03:22:18;3.30;79.20
82243;DHT22;71844;51.528;4.442;2024-02-28T03:24:45;3.30;79.20
82243;DHT22;71844;51.528;4.442;2024-02-28T03:27:12;3.30;79.30
82243;DHT22;71844;51.528;4.442;2024-02-28T03:29:39;3.20;79.40
82243;DHT22;71844;51.528;4.442;2024-02-28T03:32:06;3.20;79.30
82243;DHT22;71844;51.528;4.442;2024-02-28T03:34:33;3.20;79.40
82243;DHT22;71844;51.528;4.442;2024-02-28T03:37:00;3.20;79.40
82243;DHT22;71844;51.528;4.442;2024-02-28T03:39:27;3.20;79.50
82243;DHT22;71844;51.528;4.442;2024-02-28T03:41:54;3.20;79.60
82243;DHT22;71844;51.528;4.442;2024-02-28T03:44:20;3.20;79.60
82243;DHT22;71844;51.528;4.442;2024-02-28T03:46:48;3.10;79.60
82243;DHT22;71844;51.528;4.442;2024-02-28T03:49:15;3.20;79.70
82243;DHT22;71844;51.528;4.442;2024-02-28T03:51:42;3.10;79.70
82243;DHT22;71844;51.528;4.442;2024-02-28T03:54:09;3.10;79.70
82243;DHT22;71844;51.528;4.442;2024-02-28T03:56:38;3.10;79.80
82243;DHT22;71844;51.528;4.442;2024-02-28T03:59:05;3.10;79.70
82243;DHT22;71844;51.528;4.442;2024-02-28T04:01:32;3.10;79.80
82243;DHT22;71844;51.528;4.442;2024-02-28T04:04:02;3.10;79.90
82243;DHT22;71844;51.528;4.442;2024-02-28T04:06:30;3.10;80.00
82243;DHT22;71844;51.528;4.442;2024-02-28T04:08:57;3.10;79.90
82243;DHT22;71844;51.528;4.442;2024-02-28T04:11:24;3.00;80.00
82243;DHT22;71844;51.528;4.442;2024-02-28T04:13:51;3.00;80.20
82243;DHT22;71844;51.528;4.442;2024-02-28T04:16:19;3.00;80.40
82243;DHT22;71844;51.528;4.442;2024-02-28T04:18:46;3.00;80.40
82243;DHT22;71844;51.528;4.442;2024-02-28T04:21:13;3.00;80.50
82243;DHT22;71844;51.528;4.442;2024-02-28T04:23:40;3.10;80.50
82243;DHT22;71844;51.528;4.442;2024-02-28T04:26:08;3.10;80.70
82243;DHT22;71844;51.528;4.442;2024-02-28T04:28:36;3.10;80.90
82243;DHT22;71844;51.528;4.442;2024-02-28T04:31:04;3.20;80.90
82243;DHT22;71844;51.528;4.442;2024-02-28T04:33:31;3.20;81.20
82243;DHT22;71844;51.528;4.442;2024-02-28T04:35:58;3.30;81.30
82243;DHT22;71844;51.528;4.442;2024-02-28T04:38:25;3.40;81.20
82243;DHT22;71844;51.528;4.442;2024-02-28T04:40:55;3.50;81.10
82243;DHT22;71844;51.528;4.442;2024-02-28T04:43:22;3.50;81.10
82243;DHT22;71844;51.528;4.442;2024-02-28T04:45:53;3.60;81.20
82243;DHT22;71844;51.528;4.442;2024-02-28T04:48:20;3.60;81.30
82243;DHT22;71844;51.528;4.442;2024-02-28T04:50:51;3.70;81.20
82243;DHT22;71844;51.528;4.442;2024-02-28T04:53:18;3.70;81.20
82243;DHT22;71844;51.528;4.442;2024-02-28T04:55:49;3.80;81.30
82243;DHT22;71844;51.528;4.442;2024-02-28T04:58:21;3.80;81.30
82243;DHT22;71844;51.528;4.442;2024-02-28T05:00:48;3.90;81.40
82243;DHT22;71844;51.528;4.442;2024-02-28T05:03:20;3.90;81.20
82243;DHT22;71844;51.528;4.442;2024-02-28T05:11:17;4.00;81.40
82243;DHT22;71844;51.528;4.442;2024-02-28T05:13:48;4.00;81.50
82243;DHT22;71844;51.528;4.442;2024-02-28T05:16:15;4.10;81.40
82243;DHT22;71844;51.528;4.442;2024-02-28T05:18:44;4.10;82.00
82243;DHT22;71844;51.528;4.442;2024-02-28T05:21:12;4.20;81.40
82243;DHT22;71844;51.528;4.442;2024-02-28T05:23:42;4.20;81.20
82243;DHT22;71844;51.528;4.442;2024-02-28T05:26:12;4.20;81.00
82243;DHT22;71844;51.528;4.442;2024-02-28T05:28:39;4.20;81.10
82243;DHT22;71844;51.528;4.442;2024-02-28T05:31:26;4.20;81.10
82243;DHT22;71844;51.528;4.442;2024-02-28T05:33:56;4.20;81.20
82243;DHT22;71844;51.528;4.442;2024-02-28T05:36:24;4.30;81.20
82243;DHT22;71844;51.528;4.442;2024-02-28T05:38:53;4.30;81.30
82243;DHT22;71844;51.528;4.442;2024-02-28T05:41:20;4.30;81.30
82243;DHT22;71844;51.528;4.442;2024-02-28T05:43:48;4.30;81.20
82243;DHT22;71844;51.528;4.442;2024-02-28T05:46:16;4.40;81.30
82243;DHT22;71844;51.528;4.442;2024-02-28T05:48:44;4.40;81.30
82243;DHT22;71844;51.528;4.442;2024-02-28T05:51:12;4.40;81.40
82243;DHT22;71844;51.528;4.442;2024-02-28T05:53:40;4.40;81.50
82243;DHT22;71844;51.528;4.442;2024-02-28T05:56:08;4.40;81.40
82243;DHT22;71844;51.528;4.442;2024-02-28T05:58:47;4.40;81.40
82243;DHT22;71844;51.528;4.442;2024-02-28T06:01:17;4.40;81.50
82243;DHT22;71844;51.528;4.442;2024-02-28T06:03:48;4.40;81.60
82243;DHT22;71844;51.528;4.442;2024-02-28T06:06:15;4.50;81.70
82243;DHT22;71844;51.528;4.442;2024-02-28T06:08:43;4.50;81.70
82243;DHT22;71844;51.528;4.442;2024-02-28T06:11:10;4.50;81.70
82243;DHT22;71844;51.528;4.442;2024-02-28T06:13:39;4.50;81.70
82243;DHT22;71844;51.528;4.442;2024-02-28T06:16:07;4.50;81.80
82243;DHT22;71844;51.528;4.442;2024-02-28T06:18:34;4.60;81.80
82243;DHT22;71844;51.528;4.442;2024-02-28T06:21:01;4.60;81.80
82243;DHT22;71844;51.528;4.442;2024-02-28T06:23:28;4.60;81.70
82243;DHT22;71844;51.528;4.442;2024-02-28T06:25:56;4.60;81.80
82243;DHT22;71844;51.528;4.442;2024-02-28T06:28:24;4.60;81.90
82243;DHT22;71844;51.528;4.442;2024-02-28T06:30:51;4.60;81.90
82243;DHT22;71844;51.528;4.442;2024-02-28T06:33:18;4.60;81.90
82243;DHT22;71844;51.528;4.442;2024-02-28T06:35:46;4.70;82.10
82243;DHT22;71844;51.528;4.442;2024-02-28T06:38:13;4.70;82.10
82243;DHT22;71844;51.528;4.442;2024-02-28T06:40:40;4.70;82.10
82243;DHT22;71844;51.528;4.442;2024-02-28T06:43:08;4.70;82.10
82243;DHT22;71844;51.528;4.442;2024-02-28T06:45:35;4.70;82.20
82243;DHT22;71844;51.528;4.442;2024-02-28T06:48:04;4.70;82.10
82243;DHT22;71844;51.528;4.442;2024-02-28T06:50:31;4.70;82.30
82243;DHT22;71844;51.528;4.442;2024-02-28T06:52:58;4.80;82.20
82243;DHT22;71844;51.528;4.442;2024-02-28T06:55:25;4.80;82.40
82243;DHT22;71844;51.528;4.442;2024-02-28T06:57:52;4.80;82.40
82243;DHT22;71844;51.528;4.442;2024-02-28T07:00:19;4.80;82.50
82243;DHT22;71844;51.528;4.442;2024-02-28T07:02:46;4.80;82.40
82243;DHT22;71844;51.528;4.442;2024-02-28T07:05:13;4.80;82.50
82243;DHT22;71844;51.528;4.442;2024-02-28T07:07:40;4.80;82.50
82243;DHT22;71844;51.528;4.442;2024-02-28T07:10:07;4.80;82.70
82243;DHT22;71844;51.528;4.442;2024-02-28T07:12:34;4.90;82.70
82243;DHT22;71844;51.528;4.442;2024-02-28T07:15:02;4.90;82.70
82243;DHT22;71844;51.528;4.442;2024-02-28T07:17:29;4.90;82.70
82243;DHT22;71844;51.528;4.442;2024-02-28T07:19:56;4.90;82.70
82243;DHT22;71844;51.528;4.442;2024-02-28T07:22:23;4.90;82.90
82243;DHT22;71844;51.528;4.442;2024-02-28T07:24:53;4.90;82.90
82243;DHT22;71844;51.528;4.442;2024-02-28T07:27:23;4.90;83.00
82243;DHT22;71844;51.528;4.442;2024-02-28T07:29:53;4.90;83.00
82243;DHT22;71844;51.528;4.442;2024-02-28T07:32:21;4.90;83.00
82243;DHT22;71844;51.528;4.442;2024-02-28T07:34:48;4.90;83.10
82243;DHT22;71844;51.528;4.442;2024-02-28T07:37:15;4.90;83.20
82243;DHT22;71844;51.528;4.442;2024-02-28T07:39:42;4.90;83.40
82243;DHT22;71844;51.528;4.442;2024-02-28T07:42:09;4.90;83.40
82243;DHT22;71844;51.528;4.442;2024-02-28T07:44:36;4.90;83.40
82243;DHT22;71844;51.528;4.442;2024-02-28T07:47:03;4.90;83.40
82243;DHT22;71844;51.528;4.442;2024-02-28T07:49:30;4.90;83.50
82243;DHT22;71844;51.528;4.442;2024-02-28T07:51:56;4.90;83.50
82243;DHT22;71844;51.528;4.442;2024-02-28T07:54:24;5.00;83.50
82243;DHT22;71844;51.528;4.442;2024-02-28T07:56:51;4.90;83.60
82243;DHT22;71844;51.528;4.442;2024-02-28T07:59:18;5.00;83.70
82243;DHT22;71844;51.528;4.442;2024-02-28T08:01:45;5.00;83.80
82243;DHT22;71844;51.528;4.442;2024-02-28T08:04:13;5.00;83.80
82243;DHT22;71844;51.528;4.442;2024-02-28T08:06:40;5.10;83.90
82243;DHT22;71844;51.528;4.442;2024-02-28T08:09:08;5.10;83.90
82243;DHT22;71844;51.528;4.442;2024-02-28T08:11:39;5.10;83.80
82243;DHT22;71844;51.528;4.442;2024-02-28T08:14:06;5.10;83.80
82243;DHT22;71844;51.528;4.442;2024-02-28T08:16:33;5.10;83.90
82243;DHT22;71844;51.528;4.442;2024-02-28T08:19:00;5.20;84.00
82243;DHT22;71844;51.528;4.442;2024-02-28T08:21:27;5.30;84.00
82243;DHT22;71844;51.528;4.442;2024-02-28T08:23:56;5.30;84.30
82243;DHT22;71844;51.528;4.442;2024-02-28T08:26:25;5.30;84.20
82243;DHT22;71844;51.528;4.442;2024-02-28T08:28:52;5.40;84.20
82243;DHT22;71844;51.528;4.442;2024-02-28T08:31:18;5.40;84.40
82243;DHT22;71844;51.528;4.442;2024-02-28T08:33:45;5.50;84.70
82243;DHT22;71844;51.528;4.442;2024-02-28T08:36:12;5.60;84.80
82243;DHT22;71844;51.528;4.442;2024-02-28T08:38:39;5.70;84.90
82243;DHT22;71844;51.528;4.442;2024-02-28T08:41:07;5.90;84.90
82243;DHT22;71844;51.528;4.442;2024-02-28T08:43:40;5.90;84.70
82243;DHT22;71844;51.528;4.442;2024-02-28T08:46:07;6.10;84.70
82243;DHT22;71844;51.528;4.442;2024-02-28T08:48:35;6.20;84.70
82243;DHT22;71844;51.528;4.442;2024-02-28T08:51:04;6.30;84.50
82243;DHT22;71844;51.528;4.442;2024-02-28T08:53:31;6.40;84.70
82243;DHT22;71844;51.528;4.442;2024-02-28T08:55:58;6.60;84.70
82243;DHT22;71844;51.528;4.442;2024-02-28T08:58:25;6.70;84.20
82243;DHT22;71844;51.528;4.442;2024-02-28T09:00:52;6.80;84.00
82243;DHT22;71844;51.528;4.442;2024-02-28T09:03:19;7.00;84.10
82243;DHT22;71844;51.528;4.442;2024-02-28T09:05:48;7.20;84.40
82243;DHT22;71844;51.528;4.442;2024-02-28T09:08:15;7.40;84.20
82243;DHT22;71844;51.528;4.442;2024-02-28T09:10:42;7.60;83.90
82243;DHT22;71844;51.528;4.442;2024-02-28T09:13:09;7.90;83.70
82243;DHT22;71844;51.528;4.442;2024-02-28T09:15:38;8.00;83.10
82243;DHT22;71844;51.528;4.442;2024-02-28T09:18:05;8.30;83.30
82243;DHT22;71844;51.528;4.442;2024-02-28T09:20:33;8.50;82.80
82243;DHT22;71844;51.528;4.442;2024-02-28T09:23:00;8.60;82.50
82243;DHT22;71844;51.528;4.442;2024-02-28T09:25:26;8.70;82.00
82243;DHT22;71844;51.528;4.442;2024-02-28T09:27:55;8.80;82.20
82243;DHT22;71844;51.528;4.442;2024-02-28T09:30:22;8.90;81.60
82243;DHT22;71844;51.528;4.442;2024-02-28T09:32:51;8.80;81.10
82243;DHT22;71844;51.528;4.442;2024-02-28T09:35:18;8.70;80.40
82243;DHT22;71844;51.528;4.442;2024-02-28T09:37:45;8.60;80.60
82243;DHT22;71844;51.528;4.442;2024-02-28T09:40:12;8.60;80.40
82243;DHT22;71844;51.528;4.442;2024-02-28T09:42:40;8.60;80.60
82243;DHT22;71844;51.528;4.442;2024-02-28T09:45:09;8.60;80.80
82243;DHT22;71844;51.528;4.442;2024-02-28T09:47:39;8.70;80.60
82243;DHT22;71844;51.528;4.442;2024-02-28T09:50:07;8.70;80.50
82243;DHT22;71844;51.528;4.442;2024-02-28T09:52:34;8.80;80.30
82243;DHT22;71844;51.528;4.442;2024-02-28T09:55:02;8.90;80.20
82243;DHT22;71844;51.528;4.442;2024-02-28T09:57:30;8.90;79.70
82243;DHT22;71844;51.528;4.442;2024-02-28T09:59:59;8.90;79.90
82243;DHT22;71844;51.528;4.442;2024-02-28T10:02:28;9.10;80.20
82243;DHT22;71844;51.528;4.442;2024-02-28T10:04:56;9.30;80.10
82243;DHT22;71844;51.528;4.442;2024-02-28T10:07:24;9.50;79.60
82243;DHT22;71844;51.528;4.442;2024-02-28T10:09:51;9.60;78.80
82243;DHT22;71844;51.528;4.442;2024-02-28T10:12:20;9.70;78.40
82243;DHT22;71844;51.528;4.442;2024-02-28T10:14:50;9.80;78.90
82243;DHT22;71844;51.528;4.442;2024-02-28T10:17:17;9.90;78.80
82243;DHT22;71844;51.528;4.442;2024-02-28T10:19:44;10.00;77.70
82243;DHT22;71844;51.528;4.442;2024-02-28T10:22:11;10.00;77.60
82243;DHT22;71844;51.528;4.442;2024-02-28T10:24:38;10.10;77.30
82243;DHT22;71844;51.528;4.442;2024-02-28T10:27:05;10.00;77.10
82243;DHT22;71844;51.528;4.442;2024-02-28T10:29:32;9.90;77.00
82243;DHT22;71844;51.528;4.442;2024-02-28T10:32:00;9.90;77.20
82243;DHT22;71844;51.528;4.442;2024-02-28T10:34:27;10.00;76.60
82243;DHT22;71844;51.528;4.442;2024-02-28T10:36:54;10.00;76.90
82243;DHT22;71844;51.528;4.442;2024-02-28T10:39:24;10.10;76.80
82243;DHT22;71844;51.528;4.442;2024-02-28T10:41:52;10.10;76.60
82243;DHT22;71844;51.528;4.442;2024-02-28T10:44:20;10.10;76.00
82243;DHT22;71844;51.528;4.442;2024-02-28T10:46:49;9.90;75.80
82243;DHT22;71844;51.528;4.442;2024-02-28T10:49:17;9.80;75.80
82243;DHT22;71844;51.528;4.442;2024-02-28T10:51:47;9.70;76.00
82243;DHT22;71844;51.528;4.442;2024-02-28T10:54:15;9.60;76.20
82243;DHT22;71844;51.528;4.442;2024-02-28T10:56:43;9.60;76.50
82243;DHT22;71844;51.528;4.442;2024-02-28T10:59:11;9.60;76.60
82243;DHT22;71844;51.528;4.442;2024-02-28T11:01:43;9.70;76.90
82243;DHT22;71844;51.528;4.442;2024-02-28T11:04:12;9.80;76.90
82243;DHT22;71844;51.528;4.442;2024-02-28T11:06:57;9.90;76.70
82243;DHT22;71844;51.528;4.442;2024-02-28T11:09:25;10.00;76.50
82243;DHT22;71844;51.528;4.442;2024-02-28T11:11:53;10.00;76.60
82243;DHT22;71844;51.528;4.442;2024-02-28T11:14:21;10.10;76.50
82243;DHT22;71844;51.528;4.442;2024-02-28T11:17:00;10.20;76.40
82243;DHT22;71844;51.528;4.442;2024-02-28T11:19:29;10.30;76.20
82243;DHT22;71844;51.528;4.442;2024-02-28T11:22:00;10.30;76.00
82243;DHT22;71844;51.528;4.442;2024-02-28T11:24:33;10.30;75.80
82243;DHT22;71844;51.528;4.442;2024-02-28T11:27:01;10.20;75.70
82243;DHT22;71844;51.528;4.442;2024-02-28T11:29:33;10.20;75.80
82243;DHT22;71844;51.528;4.442;2024-02-28T11:32:00;10.10;75.60
82243;DHT22;71844;51.528;4.442;2024-02-28T11:34:28;10.10;75.70
82243;DHT22;71844;51.528;4.442;2024-02-28T11:36:55;10.10;76.00
82243;DHT22;71844;51.528;4.442;2024-02-28T11:39:23;10.20;76.10
82243;DHT22;71844;51.528;4.442;2024-02-28T11:41:54;10.30;76.20
82243;DHT22;71844;51.528;4.442;2024-02-28T11:44:21;10.40;75.90
82243;DHT22;71844;51.528;4.442;2024-02-28T11:46:49;10.50;75.40
82243;DHT22;71844;51.528;4.442;2024-02-28T11:49:17;10.50;75.50
82243;DHT22;71844;51.528;4.442;2024-02-28T11:51:44;10.60;75.40
82243;DHT22;71844;51.528;4.442;2024-02-28T11:54:12;10.60;75.40
82243;DHT22;71844;51.528;4.442;2024-02-28T11:56:39;10.60;75.10
82243;DHT22;71844;51.528;4.442;2024-02-28T11:59:08;10.60;74.80
82243;DHT22;71844;51.528;4.442;2024-02-28T12:01:42;10.50;75.00
82243;DHT22;71844;51.528;4.442;2024-02-28T12:04:11;10.50;75.10
82243;DHT22;71844;51.528;4.442;2024-02-28T12:06:39;10.50;75.20
82243;DHT22;71844;51.528;4.442;2024-02-28T12:09:07;10.50;75.00
82243;DHT22;71844;51.528;4.442;2024-02-28T12:11:38;10.50;75.10
82243;DHT22;71844;51.528;4.442;2024-02-28T12:14:08;10.50;74.80
82243;DHT22;71844;51.528;4.442;2024-02-28T12:16:41;10.40;74.90
82243;DHT22;71844;51.528;4.442;2024-02-28T12:19:10;10.40;75.10
82243;DHT22;71844;51.528;4.442;2024-02-28T12:21:37;10.30;75.00
82243;DHT22;71844;51.528;4.442;2024-02-28T12:24:09;10.30;75.00
82243;DHT22;71844;51.528;4.442;2024-02-28T12:26:37;10.20;75.20
82243;DHT22;71844;51.528;4.442;2024-02-28T12:29:04;10.20;75.30
82243;DHT22;71844;51.528;4.442;2024-02-28T12:31:31;10.30;75.50
82243;DHT22;71844;51.528;4.442;2024-02-28T12:33:58;10.30;75.40
82243;DHT22;71844;51.528;4.442;2024-02-28T12:36:25;10.40;75.40
82243;DHT22;71844;51.528;4.442;2024-02-28T12:38:53;10.50;75.30
82243;DHT22;71844;51.528;4.442;2024-02-28T12:41:20;10.50;75.30
82243;DHT22;71844;51.528;4.442;2024-02-28T12:43:48;10.50;75.30
82243;DHT22;71844;51.528;4.442;2024-02-28T12:46:15;10.50;75.10
82243;DHT22;71844;51.528;4.442;2024-02-28T12:48:42;10.40;75.10
82243;DHT22;71844;51.528;4.442;2024-02-28T12:51:21;10.30;75.20
82243;DHT22;71844;51.528;4.442;2024-02-28T12:54:02;10.20;75.20
82243;DHT22;71844;51.528;4.442;2024-02-28T12:56:29;10.10;75.30
82243;DHT22;71844;51.528;4.442;2024-02-28T12:58:55;10.10;75.40
82243;DHT22;71844;51.528;4.442;2024-02-28T13:01:22;10.00;75.60
82243;DHT22;71844;51.528;4.442;2024-02-28T13:06:34;9.90;75.80
82243;DHT22;71844;51.528;4.442;2024-02-28T13:09:02;9.90;75.90
82243;DHT22;71844;51.528;4.442;2024-02-28T13:11:29;9.90;76.10
82243;DHT22;71844;51.528;4.442;2024-02-28T13:13:57;9.90;76.10
82243;DHT22;71844;51.528;4.442;2024-02-28T13:16:24;9.90;76.10
82243;DHT22;71844;51.528;4.442;2024-02-28T13:18:51;9.80;76.10
82243;DHT22;71844;51.528;4.442;2024-02-28T13:21:18;9.80;76.20
82243;DHT22;71844;51.528;4.442;2024-02-28T13:23:46;9.80;76.30
82243;DHT22;71844;51.528;4.442;2024-02-28T13:26:14;9.80;76.50
82243;DHT22;71844;51.528;4.442;2024-02-28T13:28:45;9.80;76.60
82243;DHT22;71844;51.528;4.442;2024-02-28T13:31:17;9.70;76.60
82243;DHT22;71844;51.528;4.442;2024-02-28T13:33:44;9.70;76.60
82243;DHT22;71844;51.528;4.442;2024-02-28T13:36:11;9.70;76.90
82243;DHT22;71844;51.528;4.442;2024-02-28T13:38:38;9.60;77.00
82243;DHT22;71844;51.528;4.442;2024-02-28T13:41:05;9.60;77.20
82243;DHT22;71844;51.528;4.442;2024-02-28T13:43:33;9.60;77.30
82243;DHT22;71844;51.528;4.442;2024-02-28T13:46:00;9.50;77.40
82243;DHT22;71844;51.528;4.442;2024-02-28T13:48:28;9.40;78.10
82243;DHT22;71844;51.528;4.442;2024-02-28T13:51:00;9.40;78.10
82243;DHT22;71844;51.528;4.442;2024-02-28T13:53:28;9.40;78.60
82243;DHT22;71844;51.528;4.442;2024-02-28T13:55:57;9.40;78.60
82243;DHT22;71844;51.528;4.442;2024-02-28T13:58:24;9.30;78.70
82243;DHT22;71844;51.528;4.442;2024-02-28T14:01:01;9.30;79.10
82243;DHT22;71844;51.528;4.442;2024-02-28T14:03:28;9.30;79.60
82243;DHT22;71844;51.528;4.442;2024-02-28T14:05:55;9.20;79.80
82243;DHT22;71844;51.528;4.442;2024-02-28T14:08:22;9.20;79.80
82243;DHT22;71844;51.528;4.442;2024-02-28T14:10:49;9.20;80.20
82243;DHT22;71844;51.528;4.442;2024-02-28T14:13:16;9.10;80.50
82243;DHT22;71844;51.528;4.442;2024-02-28T14:15:45;9.20;80.40
82243;DHT22;71844;51.528;4.442;2024-02-28T14:18:18;9.20;80.80
82243;DHT22;71844;51.528;4.442;2024-02-28T14:20:45;9.20;80.80
82243;DHT22;71844;51.528;4.442;2024-02-28T14:23:12;9.20;81.10
82243;DHT22;71844;51.528;4.442;2024-02-28T14:25:41;9.30;81.20
82243;DHT22;71844;51.528;4.442;2024-02-28T14:28:08;9.30;81.40
82243;DHT22;71844;51.528;4.442;2024-02-28T14:30:36;9.40;81.30
82243;DHT22;71844;51.528;4.442;2024-02-28T14:33:03;9.50;81.20
82243;DHT22;71844;51.528;4.442;2024-02-28T14:35:34;9.60;81.10
82243;DHT22;71844;51.528;4.442;2024-02-28T14:38:01;9.70;81.20
82243;DHT22;71844;51.528;4.442;2024-02-28T14:40:28;9.80;81.40
82243;DHT22;71844;51.528;4.442;2024-02-28T14:42:55;9.90;81.30
82243;DHT22;71844;51.528;4.442;2024-02-28T14:45:22;10.00;81.80
82243;DHT22;71844;51.528;4.442;2024-02-28T14:47:51;10.20;81.80
82243;DHT22;71844;51.528;4.442;2024-02-28T14:50:18;10.40;81.70
82243;DHT22;71844;51.528;4.442;2024-02-28T14:52:45;10.60;81.40
82243;DHT22;71844;51.528;4.442;2024-02-28T14:55:12;10.70;81.00
82243;DHT22;71844;51.528;4.442;2024-02-28T14:57:39;10.80;80.50
82243;DHT22;71844;51.528;4.442;2024-02-28T15:00:10;10.80;80.10
82243;DHT22;71844;51.528;4.442;2024-02-28T15:02:41;10.80;79.80
82243;DHT22;71844;51.528;4.442;2024-02-28T15:05:09;10.90;79.50
82243;DHT22;71844;51.528;4.442;2024-02-28T15:07:36;10.90;79.20
82243;DHT22;71844;51.528;4.442;2024-02-28T15:10:03;10.90;79.00
82243;DHT22;71844;51.528;4.442;2024-02-28T15:12:32;10.90;78.90
82243;DHT22;71844;51.528;4.442;2024-02-28T15:15:00;10.90;78.80
82243;DHT22;71844;51.528;4.442;2024-02-28T15:17:30;10.90;78.50
82243;DHT22;71844;51.528;4.442;2024-02-28T15:19:57;10.90;77.90
82243;DHT22;71844;51.528;4.442;2024-02-28T15:22:24;10.80;77.80
82243;DHT22;71844;51.528;4.442;2024-02-28T15:24:51;10.80;77.80
82243;DHT22;71844;51.528;4.442;2024-02-28T15:27:18;10.80;77.70
82243;DHT22;71844;51.528;4.442;2024-02-28T15:29:45;10.70;77.60
82243;DHT22;71844;51.528;4.442;2024-02-28T15:32:12;10.70;77.60
82243;DHT22;71844;51.528;4.442;2024-02-28T15:34:39;10.70;77.60
82243;DHT22;71844;51.528;4.442;2024-02-28T15:37:07;10.70;77.50
82243;DHT22;71844;51.528;4.442;2024-02-28T15:39:36;10.70;77.40
82243;DHT22;71844;51.528;4.442;2024-02-28T15:42:03;10.60;77.10
82243;DHT22;71844;51.528;4.442;2024-02-28T15:44:30;10.60;77.10
82243;DHT22;71844;51.528;4.442;2024-02-28T15:46:57;10.50;77.00
82243;DHT22;71844;51.528;4.442;2024-02-28T15:49:24;10.50;77.10
82243;DHT22;71844;51.528;4.442;2024-02-28T15:52:06;10.50;77.00
82243;DHT22;71844;51.528;4.442;2024-02-28T15:54:36;10.50;76.80
82243;DHT22;71844;51.528;4.442;2024-02-28T15:57:04;10.50;76.90
82243;DHT22;71844;51.528;4.442;2024-02-28T16:02:19;10.50;76.80
82243;DHT22;71844;51.528;4.442;2024-02-28T16:04:47;10.50;76.80